createdAt,value
2022-11-20T00:01:30.168Z,-2.32
2022-11-20T00:04:01.697Z,-2.46
2022-11-20T00:06:29.959Z,-2.45
2022-11-20T00:09:01.074Z,-2.36
2022-11-20T00:11:30.847Z,-2.51
2022-11-20T00:14:01.165Z,-2.36
2022-11-20T00:16:32.007Z,-2.49
2022-11-20T00:18:59.175Z,-2.57
2022-11-20T00:21:29.196Z,-2.54
2022-11-20T00:23:59.546Z,-2.49
2022-11-20T00:26:29.251Z,-2.57
2022-11-20T00:29:00.258Z,-2.69
2022-11-20T00:31:28.643Z,-2.83
2022-11-20T00:33:56.359Z,-2.98
2022-11-20T00:36:27.267Z,-3.04
2022-11-20T00:38:59.790Z,-3.06
2022-11-20T00:41:29.260Z,-3.12
2022-11-20T00:43:57.327Z,-3.12
2022-11-20T00:46:28.170Z,-3.18
2022-11-20T00:48:55.616Z,-3.23
2022-11-20T00:51:27.225Z,-3.38
2022-11-20T00:53:58.102Z,-3.44
2022-11-20T00:56:25.355Z,-3.56
2022-11-20T00:58:52.621Z,-3.58
2022-11-20T01:01:25.345Z,-3.61
2022-11-20T01:03:55.383Z,-3.64
2022-11-20T01:06:35.339Z,-3.68
2022-11-20T01:09:14.565Z,-3.77
2022-11-20T01:11:45.477Z,-3.80
2022-11-20T01:14:17.154Z,-3.83
2022-11-20T01:16:50.449Z,-3.85
2022-11-20T01:19:22.709Z,-4.03
2022-11-20T01:21:53.856Z,-3.98
2022-11-20T01:24:22.776Z,-3.92
2022-11-20T01:26:52.373Z,-3.89
2022-11-20T01:29:25.558Z,-3.85
2022-11-20T01:31:53.874Z,-3.90
2022-11-20T01:34:23.379Z,-4.04
2022-11-20T01:36:51.443Z,-4.20
2022-11-20T01:39:27.076Z,-4.22
2022-11-20T01:42:15.301Z,-4.30
2022-11-20T01:44:49.338Z,-4.36
2022-11-20T01:47:39.450Z,-4.32
2022-11-20T01:50:15.646Z,-4.33
2022-11-20T01:53:00.703Z,-4.39
2022-11-20T01:55:37.607Z,-4.43
2022-11-20T01:58:05.944Z,-4.46
2022-11-20T02:00:33.524Z,-4.48
2022-11-20T02:03:11.435Z,-4.55
2022-11-20T02:06:02.848Z,-4.54
2022-11-20T02:08:30.667Z,-4.62
2022-11-20T02:10:57.885Z,-4.57
2022-11-20T02:13:43.829Z,-4.55
2022-11-20T02:16:18.811Z,-4.59
2022-11-20T02:18:47.358Z,-4.57
2022-11-20T02:21:22.845Z,-4.57
2022-11-20T02:24:04.834Z,-4.67
2022-11-20T02:26:46.205Z,-4.70
2022-11-20T02:29:14.592Z,-4.68
2022-11-20T02:31:44.737Z,-4.62
2022-11-20T02:34:12.353Z,-4.58
2022-11-20T02:36:42.127Z,-4.63
2022-11-20T02:39:13.194Z,-4.63
2022-11-20T02:41:40.680Z,-4.47
2022-11-20T02:44:07.810Z,-4.36
2022-11-20T02:46:35.238Z,-4.30
2022-11-20T02:49:05.052Z,-4.17
2022-11-20T02:51:33.491Z,-4.04
2022-11-20T02:54:00.717Z,-3.92
2022-11-20T02:56:28.460Z,-3.85
2022-11-20T02:58:56.571Z,-3.80
2022-11-20T03:01:24.256Z,-3.68
2022-11-20T03:03:51.560Z,-3.60
2022-11-20T03:06:18.718Z,-3.56
2022-11-20T03:08:45.883Z,-3.47
2022-11-20T03:11:13.138Z,-3.41
2022-11-20T03:13:40.507Z,-3.43
2022-11-20T03:16:17.525Z,-3.20
2022-11-20T03:18:45.364Z,-2.89
2022-11-20T03:21:14.331Z,-2.85
2022-11-20T03:23:41.827Z,-2.78
2022-11-20T03:26:16.722Z,-2.69
2022-11-20T03:28:50.388Z,-2.55
2022-11-20T03:31:20.078Z,-2.62
2022-11-20T03:33:47.442Z,-2.46
2022-11-20T03:36:17.171Z,-2.44
2022-11-20T03:38:44.636Z,-2.42
2022-11-20T03:41:16.111Z,-2.36
2022-11-20T03:43:43.351Z,-2.28
2022-11-20T03:46:10.506Z,-2.14
2022-11-20T03:48:37.780Z,-2.21
2022-11-20T03:51:10.940Z,-2.13
2022-11-20T03:53:38.694Z,-2.08
2022-11-20T03:56:06.861Z,-2.10
2022-11-20T03:58:37.185Z,-2.13
2022-11-20T04:01:17.542Z,-2.16
2022-11-20T04:03:46.257Z,-2.14
2022-11-20T04:06:29.304Z,-2.14
2022-11-20T04:08:58.617Z,-2.04
2022-11-20T04:11:29.426Z,-2.08
2022-11-20T04:14:02.436Z,-2.21
2022-11-20T04:16:37.411Z,-2.43
2022-11-20T04:19:07.990Z,-2.42
2022-11-20T04:21:35.280Z,-2.55
2022-11-20T04:24:02.772Z,-2.40
2022-11-20T04:26:31.423Z,-2.41
2022-11-20T04:28:59.537Z,-2.39
2022-11-20T04:31:30.204Z,-2.35
2022-11-20T04:34:04.626Z,-2.43
2022-11-20T04:36:32.997Z,-2.51
2022-11-20T04:39:04.499Z,-2.53
2022-11-20T04:41:35.286Z,-2.53
2022-11-20T04:44:05.782Z,-2.64
2022-11-20T04:46:42.112Z,-2.58
2022-11-20T04:49:10.055Z,-2.49
2022-11-20T04:51:37.363Z,-2.44
2022-11-20T04:54:04.918Z,-2.54
2022-11-20T04:56:32.276Z,-2.59
2022-11-20T04:59:03.217Z,-2.62
2022-11-20T05:01:31.366Z,-2.52
2022-11-20T05:03:58.642Z,-2.29
2022-11-20T05:06:25.795Z,-2.30
2022-11-20T05:08:53.102Z,-2.19
2022-11-20T05:11:22.361Z,-2.31
2022-11-20T05:13:51.188Z,-2.61
2022-11-20T05:16:24.134Z,-2.62
2022-11-20T05:18:54.329Z,-2.58
2022-11-20T05:21:21.947Z,-2.43
2022-11-20T05:23:49.419Z,-2.45
2022-11-20T05:26:20.810Z,-2.39
2022-11-20T05:28:48.688Z,-2.48
2022-11-20T05:31:26.177Z,-2.56
2022-11-20T05:33:54.820Z,-2.48
2022-11-20T05:36:22.294Z,-2.61
2022-11-20T05:38:51.122Z,-2.40
2022-11-20T05:41:21.277Z,-2.40
2022-11-20T05:43:50.790Z,-2.44
2022-11-20T05:46:27.757Z,-2.46
2022-11-20T05:48:57.632Z,-2.23
2022-11-20T05:51:25.805Z,-2.21
2022-11-20T05:53:53.083Z,-2.27
2022-11-20T05:56:22.353Z,-2.38
2022-11-20T05:58:50.173Z,-2.47
2022-11-20T06:01:24.886Z,-2.32
2022-11-20T06:03:53.701Z,-2.39
2022-11-20T06:06:21.474Z,-2.51
2022-11-20T06:08:49.540Z,-2.61
2022-11-20T06:11:17.574Z,-2.66
2022-11-20T06:13:46.415Z,-2.60
2022-11-20T06:16:17.390Z,-2.60
2022-11-20T06:18:44.750Z,-2.74
2022-11-20T06:21:19.118Z,-2.61
2022-11-20T06:23:47.439Z,-2.46
2022-11-20T06:26:20.847Z,-2.51
2022-11-20T06:28:48.545Z,-2.48
2022-11-20T06:31:18.745Z,-2.34
2022-11-20T06:33:46.451Z,-2.34
2022-11-20T06:36:17.033Z,-2.26
2022-11-20T06:38:44.663Z,-2.42
2022-11-20T06:41:21.806Z,-2.23
2022-11-20T06:43:50.287Z,-2.03
2022-11-20T06:46:19.688Z,-2.00
2022-11-20T06:48:48.657Z,-1.92
2022-11-20T06:51:16.383Z,-1.77
2022-11-20T06:53:43.651Z,-1.70
2022-11-20T06:56:11.356Z,-1.74
2022-11-20T06:58:38.836Z,-1.64
2022-11-20T07:01:10.842Z,-1.47
2022-11-20T07:03:39.053Z,-1.38
2022-11-20T07:06:06.965Z,-1.34
2022-11-20T07:08:35.055Z,-1.24
2022-11-20T07:11:07.885Z,-1.23
2022-11-20T07:13:35.410Z,-1.26
2022-11-20T07:16:05.789Z,-1.20
2022-11-20T07:18:33.286Z,-1.23
2022-11-20T07:21:10.524Z,-1.20
2022-11-20T07:23:38.417Z,-1.11
2022-11-20T07:26:11.375Z,-1.15
2022-11-20T07:28:39.132Z,-1.12
2022-11-20T07:31:08.402Z,-0.99
2022-11-20T07:33:35.777Z,-0.94
2022-11-20T07:36:03.211Z,-0.92
2022-11-20T07:38:30.511Z,-0.97
2022-11-20T07:40:58.859Z,-0.90
2022-11-20T07:43:26.696Z,-0.85
2022-11-20T07:45:57.029Z,-0.83
2022-11-20T07:48:25.517Z,-0.62
2022-11-20T07:50:59.186Z,-0.57
2022-11-20T07:53:26.442Z,-0.49
2022-11-20T07:55:53.912Z,-0.38
2022-11-20T07:58:22.589Z,-0.50
2022-11-20T08:00:50.141Z,-0.35
2022-11-20T08:03:24.136Z,-0.40
2022-11-20T08:05:52.784Z,-0.43
2022-11-20T08:08:20.277Z,-0.32
2022-11-20T08:10:47.628Z,-0.42
2022-11-20T08:13:33.242Z,-0.27
2022-11-20T08:16:00.604Z,-0.23
2022-11-20T08:18:32.397Z,-0.15
2022-11-20T08:21:06.386Z,-0.13
2022-11-20T08:23:33.928Z,-0.06
2022-11-20T08:26:01.229Z,0.01
2022-11-20T08:28:28.455Z,-0.09
2022-11-20T08:31:02.987Z,-0.05
2022-11-20T08:33:31.124Z,-0.06
2022-11-20T08:36:03.571Z,0.00
2022-11-20T08:38:32.126Z,0.00
2022-11-20T08:41:23.098Z,-0.13
2022-11-20T08:43:50.953Z,-0.15
2022-11-20T08:46:18.890Z,-0.13
2022-11-20T08:48:46.636Z,-0.18
2022-11-20T08:51:14.780Z,-0.01
2022-11-20T08:53:42.570Z,0.08
2022-11-20T08:56:13.419Z,0.04
2022-11-20T08:59:09.702Z,0.12
2022-11-20T09:01:29.343Z,0.13
2022-11-20T09:04:00.909Z,0.02
2022-11-20T09:06:28.255Z,0.17
2022-11-20T09:08:55.966Z,0.44
2022-11-20T09:11:23.664Z,0.51
2022-11-20T09:13:51.728Z,0.50
2022-11-20T09:16:19.122Z,0.46
2022-11-20T09:18:46.684Z,0.46
2022-11-20T09:21:15.257Z,0.64
2022-11-20T09:23:42.736Z,0.57
2022-11-20T09:26:15.160Z,0.83
2022-11-20T09:28:42.646Z,0.89
2022-11-20T09:31:20.811Z,0.89
2022-11-20T09:33:48.167Z,1.25
2022-11-20T09:36:15.591Z,1.43
2022-11-20T09:38:42.851Z,1.59
2022-11-20T09:41:51.679Z,1.78
2022-11-20T09:44:41.274Z,2.06
2022-11-20T09:48:04.671Z,2.49
2022-11-20T09:50:49.006Z,2.75
2022-11-20T09:53:38.082Z,3.03
2022-11-20T09:56:06.189Z,3.33
2022-11-20T09:58:44.861Z,3.51
2022-11-20T10:01:35.404Z,3.61
2022-11-20T10:04:17.935Z,3.59
2022-11-20T10:10:02.028Z,3.84
2022-11-20T10:12:35.003Z,4.07
2022-11-20T10:15:24.862Z,4.25
2022-11-20T10:18:12.805Z,4.59
2022-11-20T10:21:34.816Z,4.83
2022-11-20T10:25:06.036Z,4.19
2022-11-20T10:28:04.272Z,4.07
2022-11-20T10:30:36.131Z,3.99
2022-11-20T10:33:23.483Z,3.91
2022-11-20T10:36:13.964Z,3.51
2022-11-20T10:38:55.637Z,3.29
2022-11-20T10:41:38.182Z,3.65
2022-11-20T10:44:39.643Z,3.74
2022-11-20T10:47:12.865Z,4.03
2022-11-20T10:49:41.495Z,3.98
2022-11-20T10:52:27.118Z,3.88
2022-11-20T10:55:34.391Z,3.95
2022-11-20T10:58:15.650Z,3.66
2022-11-20T11:00:43.371Z,3.80
2022-11-20T11:03:28.500Z,3.51
2022-11-20T11:06:30.915Z,3.18
2022-11-20T11:09:02.449Z,3.44
2022-11-20T11:11:34.455Z,6.48
2022-11-20T11:14:11.203Z,7.30
2022-11-20T11:16:52.443Z,6.13
2022-11-20T11:19:20.198Z,5.26
2022-11-20T11:21:57.673Z,5.79
2022-11-20T11:24:46.278Z,5.04
2022-11-20T11:27:18.936Z,5.05
2022-11-20T11:29:47.948Z,4.50
2022-11-20T11:32:21.718Z,4.05
2022-11-20T11:35:22.150Z,5.09
2022-11-20T11:37:50.237Z,6.29
2022-11-20T11:40:24.785Z,5.60
2022-11-20T11:43:01.105Z,5.36
2022-11-20T11:45:28.862Z,5.15
2022-11-20T11:48:01.816Z,5.13
2022-11-20T11:50:32.067Z,5.44
2022-11-20T11:53:14.303Z,5.85
2022-11-20T11:56:03.449Z,6.10
2022-11-20T11:58:44.865Z,5.68
2022-11-20T12:01:36.047Z,6.30
2022-11-20T12:04:43.373Z,6.13
2022-11-20T12:07:45.638Z,7.10
2022-11-20T12:10:49.630Z,7.80
2022-11-20T12:13:26.602Z,8.50
2022-11-20T12:15:55.105Z,10.33
2022-11-20T12:18:24.007Z,10.77
2022-11-20T12:21:12.155Z,10.65
2022-11-20T12:24:09.825Z,9.12
2022-11-20T12:27:21.250Z,7.93
2022-11-20T12:30:14.292Z,7.33
2022-11-20T12:33:23.030Z,6.88
2022-11-20T12:36:45.176Z,6.52
2022-11-20T12:39:39.533Z,6.25
2022-11-20T12:42:37.994Z,6.14
2022-11-20T12:45:35.814Z,6.43
2022-11-20T12:48:34.302Z,6.58
2022-11-20T12:51:19.847Z,6.37
2022-11-20T12:54:00.389Z,5.77
2022-11-20T12:56:53.850Z,5.46
2022-11-20T12:59:51.369Z,5.18
2022-11-20T13:02:28.870Z,4.72
2022-11-20T13:05:59.506Z,4.26
2022-11-20T13:08:34.531Z,3.86
2022-11-20T13:11:32.876Z,4.04
2022-11-20T13:14:00.058Z,3.98
2022-11-20T13:16:39.598Z,3.99
2022-11-20T13:19:12.278Z,4.10
2022-11-20T13:21:50.388Z,4.02
2022-11-20T13:24:21.047Z,3.97
2022-11-20T13:26:48.704Z,4.25
2022-11-20T13:29:20.681Z,4.47
2022-11-20T13:31:49.385Z,4.46
2022-11-20T13:34:27.877Z,4.45
2022-11-20T13:36:58.020Z,4.40
2022-11-20T13:39:32.800Z,4.15
2022-11-20T13:42:22.954Z,4.02
2022-11-20T13:45:01.497Z,3.85
2022-11-20T13:47:30.598Z,3.83
2022-11-20T13:50:00.513Z,3.83
2022-11-20T13:52:39.568Z,3.92
2022-11-20T13:55:47.515Z,3.88
2022-11-20T13:59:21.986Z,3.68
2022-11-20T14:01:51.548Z,3.64
2022-11-20T14:04:30.167Z,3.57
2022-11-20T14:06:58.574Z,3.48
2022-11-20T14:09:30.069Z,3.38
2022-11-20T14:11:58.328Z,3.37
2022-11-20T14:14:31.119Z,3.41
2022-11-20T14:17:27.784Z,3.50
2022-11-20T14:19:59.742Z,3.51
2022-11-20T14:22:28.531Z,3.44
2022-11-20T14:25:19.426Z,3.34
2022-11-20T14:27:51.697Z,3.24
2022-11-20T14:30:23.779Z,3.11
2022-11-20T14:32:55.572Z,3.00
2022-11-20T14:35:31.373Z,3.10
2022-11-20T14:37:59.495Z,3.10
2022-11-20T14:40:36.991Z,3.02
2022-11-20T14:43:24.281Z,2.58
2022-11-20T14:46:01.923Z,2.63
2022-11-20T14:48:46.576Z,2.61
2022-11-20T14:51:43.863Z,2.58
2022-11-20T14:54:23.629Z,2.22
2022-11-20T14:57:02.797Z,2.29
2022-11-20T14:59:36.060Z,2.41
2022-11-20T15:02:22.605Z,2.42
2022-11-20T15:04:57.448Z,2.40
2022-11-20T15:07:37.952Z,2.46
2022-11-20T15:10:08.827Z,2.38
2022-11-20T15:12:47.197Z,2.32
2022-11-20T15:15:21.867Z,2.33
2022-11-20T15:17:49.169Z,2.46
2022-11-20T15:20:18.419Z,2.50
2022-11-20T15:22:45.944Z,2.55
2022-11-20T15:25:18.935Z,2.50
2022-11-20T15:27:50.508Z,2.47
2022-11-20T15:30:21.009Z,2.53
2022-11-20T15:32:49.214Z,2.57
2022-11-20T15:35:17.389Z,2.55
2022-11-20T15:37:45.156Z,2.60
2022-11-20T15:40:13.055Z,2.57
2022-11-20T15:43:00.391Z,2.29
2022-11-20T15:45:41.208Z,2.18
2022-11-20T15:48:21.097Z,1.90
2022-11-20T15:51:12.860Z,1.77
2022-11-20T15:53:42.502Z,1.79
2022-11-20T15:56:14.467Z,1.72
2022-11-20T15:58:42.813Z,1.50
2022-11-20T16:01:16.361Z,1.30
2022-11-20T16:03:43.825Z,1.27
2022-11-20T16:06:11.087Z,1.04
2022-11-20T16:08:38.375Z,1.05
2022-11-20T16:11:06.072Z,1.02
2022-11-20T16:13:52.521Z,0.75
2022-11-20T16:16:33.991Z,0.60
2022-11-20T16:19:01.478Z,0.56
2022-11-20T16:21:32.171Z,0.54
2022-11-20T16:24:06.605Z,0.68
2022-11-20T16:26:35.037Z,0.74
2022-11-20T16:29:04.469Z,0.70
2022-11-20T16:31:32.473Z,0.73
2022-11-20T16:34:11.868Z,0.60
2022-11-20T16:36:44.679Z,0.67
2022-11-20T16:39:13.191Z,0.74
2022-11-20T16:41:40.550Z,0.78
2022-11-20T16:44:11.135Z,0.75
2022-11-20T16:46:39.219Z,0.85
2022-11-20T16:49:14.218Z,0.97
2022-11-20T16:51:41.920Z,0.96
2022-11-20T16:54:10.596Z,0.94
2022-11-20T16:56:39.393Z,0.97
2022-11-20T16:59:07.589Z,1.01
2022-11-20T17:01:38.727Z,1.10
2022-11-20T17:04:07.522Z,1.10
2022-11-20T17:06:39.019Z,1.09
2022-11-20T17:09:09.566Z,1.18
2022-11-20T17:11:37.740Z,1.28
2022-11-20T17:14:09.148Z,1.39
2022-11-20T17:16:37.509Z,1.50
2022-11-20T17:19:05.540Z,1.53
2022-11-20T17:21:36.403Z,1.60
2022-11-20T17:24:07.001Z,1.64
2022-11-20T17:26:35.646Z,1.61
2022-11-20T17:29:10.660Z,1.73
2022-11-20T17:31:39.086Z,1.75
2022-11-20T17:34:08.586Z,1.73
2022-11-20T17:36:37.705Z,1.68
2022-11-20T17:39:08.451Z,1.73
2022-11-20T17:41:35.810Z,1.81
2022-11-20T17:44:03.311Z,1.79
2022-11-20T17:46:33.508Z,1.57
2022-11-20T17:49:02.256Z,1.40
2022-11-20T17:51:32.995Z,1.33
2022-11-20T17:54:03.984Z,1.23
2022-11-20T17:56:53.966Z,1.13
2022-11-20T17:59:21.887Z,1.04
2022-11-20T18:01:49.516Z,1.01
2022-11-20T18:04:17.374Z,0.86
2022-11-20T18:06:44.656Z,0.74
2022-11-20T18:09:12.687Z,0.64
2022-11-20T18:11:42.208Z,0.64
2022-11-20T18:14:34.823Z,0.84
2022-11-20T18:17:03.697Z,0.91
2022-11-20T18:19:37.614Z,0.73
2022-11-20T18:22:09.036Z,0.62
2022-11-20T18:24:37.485Z,0.46
2022-11-20T18:27:06.187Z,0.47
2022-11-20T18:29:34.315Z,0.56
2022-11-20T18:32:02.067Z,0.73
2022-11-20T18:34:29.685Z,0.86
2022-11-20T18:36:57.779Z,0.76
2022-11-20T18:39:25.194Z,0.59
2022-11-20T18:42:11.892Z,0.76
2022-11-20T18:44:51.504Z,0.93
2022-11-20T18:47:23.086Z,0.99
2022-11-20T18:49:57.268Z,1.09
2022-11-20T18:52:53.501Z,1.10
2022-11-20T18:55:24.368Z,1.09
2022-11-20T18:57:51.643Z,1.02
2022-11-20T19:00:19.120Z,1.00
2022-11-20T19:02:46.542Z,0.97
2022-11-20T19:05:15.157Z,0.80
2022-11-20T19:07:43.449Z,0.70
2022-11-20T19:10:11.109Z,0.63
2022-11-20T19:12:38.507Z,0.60
2022-11-20T19:15:06.713Z,0.63
2022-11-20T19:17:34.640Z,0.71
2022-11-20T19:20:01.973Z,0.76
2022-11-20T19:22:29.317Z,0.74
2022-11-20T19:24:56.698Z,0.77
2022-11-20T19:27:24.213Z,0.79
2022-11-20T19:29:51.447Z,0.84
2022-11-20T19:32:18.739Z,0.88
2022-11-20T19:34:46.033Z,1.07
2022-11-20T19:37:13.320Z,1.15
2022-11-20T19:39:40.557Z,1.13
2022-11-20T19:42:07.797Z,1.22
2022-11-20T19:44:35.245Z,1.36
2022-11-20T19:47:08.880Z,1.32
2022-11-20T19:49:37.636Z,1.47
2022-11-20T19:52:05.192Z,1.49
2022-11-20T19:54:32.358Z,1.44
2022-11-20T19:56:59.575Z,1.49
2022-11-20T19:59:27.205Z,1.53
2022-11-20T20:01:54.635Z,1.61
2022-11-20T20:04:22.065Z,1.78
2022-11-20T20:06:50.773Z,1.86
2022-11-20T20:09:18.059Z,1.93
2022-11-20T20:11:47.157Z,1.89
2022-11-20T20:14:16.734Z,2.04
2022-11-20T20:16:44.303Z,2.07
2022-11-20T20:19:15.895Z,2.09
2022-11-20T20:21:44.433Z,2.19
2022-11-20T20:24:12.539Z,2.28
2022-11-20T20:26:40.181Z,2.28
2022-11-20T20:29:07.529Z,2.24
2022-11-20T20:31:35.875Z,2.17
2022-11-20T20:34:05.334Z,2.24
2022-11-20T20:36:33.014Z,2.29
2022-11-20T20:39:00.452Z,2.28
2022-11-20T20:41:27.865Z,2.29
2022-11-20T20:44:13.699Z,2.28
2022-11-20T20:46:41.581Z,2.27
2022-11-20T20:49:09.468Z,2.23
2022-11-20T20:51:36.918Z,2.10
2022-11-20T20:54:05.321Z,2.19
2022-11-20T20:56:32.856Z,2.01
2022-11-20T20:59:00.198Z,2.00
2022-11-20T21:01:30.623Z,1.87
2022-11-20T21:03:58.466Z,1.84
2022-11-20T21:06:26.333Z,1.76
2022-11-20T21:08:54.233Z,1.82
2022-11-20T21:11:21.536Z,1.81
2022-11-20T21:13:49.881Z,1.77
2022-11-20T21:16:20.563Z,1.83
2022-11-20T21:18:48.073Z,1.88
2022-11-20T21:21:35.549Z,1.86
2022-11-20T21:24:03.871Z,1.78
2022-11-20T21:26:31.141Z,1.71
2022-11-20T21:28:58.505Z,1.67
2022-11-20T21:31:27.416Z,1.66
2022-11-20T21:33:56.952Z,1.63
2022-11-20T21:36:32.095Z,1.76
2022-11-20T21:39:00.167Z,1.70
2022-11-20T21:41:30.542Z,1.77
2022-11-20T21:46:47.377Z,1.74
2022-11-20T21:49:15.366Z,1.78
2022-11-20T21:51:42.821Z,1.78
2022-11-20T21:54:11.644Z,1.66
2022-11-20T21:56:39.240Z,1.48
2022-11-20T21:59:06.514Z,1.54
2022-11-20T22:01:36.745Z,1.52
2022-11-20T22:04:04.166Z,1.42
2022-11-20T22:06:34.098Z,1.43
2022-11-20T22:09:03.082Z,1.48
2022-11-20T22:11:31.062Z,1.20
2022-11-20T22:14:17.527Z,1.24
2022-11-20T22:16:44.722Z,1.35
2022-11-20T22:19:15.313Z,1.27
2022-11-20T22:21:43.034Z,1.27
2022-11-20T22:24:14.942Z,1.33
2022-11-20T22:26:42.686Z,1.30
2022-11-20T22:29:16.754Z,1.15
2022-11-20T22:31:44.062Z,1.15
2022-11-20T22:34:13.418Z,1.10
2022-11-20T22:36:41.687Z,1.08
2022-11-20T22:39:09.459Z,0.97
2022-11-20T22:41:36.798Z,0.98
2022-11-20T22:44:08.260Z,1.21
2022-11-20T22:46:37.654Z,1.29
2022-11-20T22:49:08.655Z,1.35
2022-11-20T22:51:39.337Z,1.34
2022-11-20T22:54:07.576Z,1.44
2022-11-20T22:56:35.188Z,1.53
2022-11-20T22:59:02.740Z,1.48
2022-11-20T23:01:35.386Z,1.50
2022-11-20T23:04:06.733Z,1.43
2022-11-20T23:06:37.102Z,1.31
2022-11-20T23:09:06.296Z,1.25
2022-11-20T23:11:35.234Z,1.17
2022-11-20T23:14:12.259Z,1.13
2022-11-20T23:16:39.817Z,1.17
2022-11-20T23:19:10.683Z,1.18
2022-11-20T23:21:39.346Z,1.12
2022-11-20T23:24:07.987Z,1.10
2022-11-20T23:26:38.921Z,0.94
2022-11-20T23:29:06.872Z,0.77
2022-11-20T23:31:35.767Z,0.66
2022-11-20T23:34:03.509Z,0.50
2022-11-20T23:36:31.403Z,0.38
2022-11-20T23:38:58.706Z,0.31
2022-11-20T23:41:26.053Z,0.16
2022-11-20T23:43:53.931Z,0.16
2022-11-20T23:46:21.288Z,0.15
2022-11-20T23:48:48.610Z,0.08
2022-11-20T23:51:15.906Z,0.19
2022-11-20T23:53:43.531Z,0.31
2022-11-20T23:56:14.615Z,0.29
2022-11-20T23:58:42.643Z,0.24
